sensor_id;sensor_type;location;lat;lon;timestamp;P1;durP1;ratioP1;P2;durP2;ratioP2
19861;SDS011;10093;48.148;8.542;2023-09-18T00:01:27;3.72;;;2.20;;
19861;SDS011;10093;48.148;8.542;2023-09-18T00:03:53;4.88;;;2.20;;
19861;SDS011;10093;48.148;8.542;2023-09-18T00:06:19;3.58;;;2.30;;
19861;SDS011;10093;48.148;8.542;2023-09-18T00:08:44;4.30;;;2.22;;
19861;SDS011;10093;48.148;8.542;2023-09-18T00:11:10;6.57;;;2.38;;
19861;SDS011;10093;48.148;8.542;2023-09-18T00:13:36;5.82;;;2.92;;
19861;SDS011;10093;48.148;8.542;2023-09-18T00:16:02;2.72;;;2.33;;
19861;SDS011;10093;48.148;8.542;2023-09-18T00:18:29;6.38;;;2.67;;
19861;SDS011;10093;48.148;8.542;2023-09-18T00:20:54;4.93;;;2.20;;
19861;SDS011;10093;48.148;8.542;2023-09-18T00:23:20;3.88;;;2.53;;
19861;SDS011;10093;48.148;8.542;2023-09-18T00:25:46;4.93;;;2.60;;
19861;SDS011;10093;48.148;8.542;2023-09-18T00:28:11;3.75;;;2.33;;
19861;SDS011;10093;48.148;8.542;2023-09-18T00:30:37;3.92;;;2.50;;
19861;SDS011;10093;48.148;8.542;2023-09-18T00:33:08;3.88;;;1.90;;
19861;SDS011;10093;48.148;8.542;2023-09-18T00:35:34;2.92;;;2.30;;
19861;SDS011;10093;48.148;8.542;2023-09-18T00:37:59;2.63;;;2.42;;
19861;SDS011;10093;48.148;8.542;2023-09-18T00:40:29;3.10;;;2.05;;
19861;SDS011;10093;48.148;8.542;2023-09-18T00:42:54;3.95;;;2.15;;
19861;SDS011;10093;48.148;8.542;2023-09-18T00:45:20;3.65;;;2.33;;
19861;SDS011;10093;48.148;8.542;2023-09-18T00:47:45;3.30;;;2.40;;
19861;SDS011;10093;48.148;8.542;2023-09-18T00:50:11;5.15;;;2.53;;
19861;SDS011;10093;48.148;8.542;2023-09-18T00:52:38;6.25;;;2.22;;
19861;SDS011;10093;48.148;8.542;2023-09-18T00:55:05;2.97;;;2.40;;
19861;SDS011;10093;48.148;8.542;2023-09-18T00:57:32;3.92;;;2.17;;
19861;SDS011;10093;48.148;8.542;2023-09-18T00:59:57;5.68;;;2.55;;
19861;SDS011;10093;48.148;8.542;2023-09-18T01:02:23;6.93;;;2.40;;
19861;SDS011;10093;48.148;8.542;2023-09-18T01:04:49;4.18;;;2.67;;
19861;SDS011;10093;48.148;8.542;2023-09-18T01:07:15;5.35;;;2.40;;
19861;SDS011;10093;48.148;8.542;2023-09-18T01:09:40;4.95;;;2.30;;
19861;SDS011;10093;48.148;8.542;2023-09-18T01:12:11;6.70;;;2.33;;
19861;SDS011;10093;48.148;8.542;2023-09-18T01:15:07;4.65;;;2.55;;
19861;SDS011;10093;48.148;8.542;2023-09-18T01:17:51;5.45;;;2.70;;
19861;SDS011;10093;48.148;8.542;2023-09-18T01:20:18;4.38;;;2.55;;
19861;SDS011;10093;48.148;8.542;2023-09-18T01:22:43;4.68;;;2.20;;
19861;SDS011;10093;48.148;8.542;2023-09-18T01:25:09;3.22;;;2.58;;
19861;SDS011;10093;48.148;8.542;2023-09-18T01:27:34;5.65;;;2.60;;
19861;SDS011;10093;48.148;8.542;2023-09-18T01:30:00;2.60;;;2.03;;
19861;SDS011;10093;48.148;8.542;2023-09-18T01:32:27;7.68;;;2.60;;
19861;SDS011;10093;48.148;8.542;2023-09-18T01:34:56;3.25;;;2.10;;
19861;SDS011;10093;48.148;8.542;2023-09-18T01:37:29;2.80;;;2.40;;
19861;SDS011;10093;48.148;8.542;2023-09-18T01:39:56;3.25;;;2.30;;
19861;SDS011;10093;48.148;8.542;2023-09-18T01:42:26;3.08;;;2.13;;
19861;SDS011;10093;48.148;8.542;2023-09-18T01:44:52;5.03;;;2.45;;
19861;SDS011;10093;48.148;8.542;2023-09-18T01:47:19;3.33;;;2.00;;
19861;SDS011;10093;48.148;8.542;2023-09-18T01:49:48;3.72;;;2.20;;
19861;SDS011;10093;48.148;8.542;2023-09-18T01:52:14;3.03;;;2.08;;
19861;SDS011;10093;48.148;8.542;2023-09-18T01:54:40;6.00;;;2.17;;
19861;SDS011;10093;48.148;8.542;2023-09-18T01:57:05;4.53;;;2.20;;
19861;SDS011;10093;48.148;8.542;2023-09-18T01:59:34;2.50;;;1.80;;
19861;SDS011;10093;48.148;8.542;2023-09-18T02:02:00;2.53;;;2.10;;
19861;SDS011;10093;48.148;8.542;2023-09-18T02:04:28;5.88;;;2.35;;
19861;SDS011;10093;48.148;8.542;2023-09-18T02:06:55;4.47;;;2.28;;
19861;SDS011;10093;48.148;8.542;2023-09-18T02:09:22;4.55;;;2.30;;
19861;SDS011;10093;48.148;8.542;2023-09-18T02:11:47;4.68;;;2.35;;
19861;SDS011;10093;48.148;8.542;2023-09-18T02:14:13;2.08;;;1.98;;
19861;SDS011;10093;48.148;8.542;2023-09-18T02:16:41;6.35;;;2.30;;
19861;SDS011;10093;48.148;8.542;2023-09-18T02:19:10;2.47;;;2.22;;
19861;SDS011;10093;48.148;8.542;2023-09-18T02:21:36;2.55;;;2.20;;
19861;SDS011;10093;48.148;8.542;2023-09-18T02:24:03;3.08;;;2.00;;
19861;SDS011;10093;48.148;8.542;2023-09-18T02:26:29;5.05;;;2.25;;
19861;SDS011;10093;48.148;8.542;2023-09-18T02:28:56;3.85;;;2.50;;
19861;SDS011;10093;48.148;8.542;2023-09-18T02:31:25;3.72;;;2.30;;
19861;SDS011;10093;48.148;8.542;2023-09-18T02:33:52;5.53;;;2.17;;
19861;SDS011;10093;48.148;8.542;2023-09-18T02:36:17;6.22;;;2.65;;
19861;SDS011;10093;48.148;8.542;2023-09-18T02:38:43;3.92;;;2.60;;
19861;SDS011;10093;48.148;8.542;2023-09-18T02:41:09;3.58;;;2.60;;
19861;SDS011;10093;48.148;8.542;2023-09-18T02:43:34;3.78;;;2.45;;
19861;SDS011;10093;48.148;8.542;2023-09-18T02:46:02;4.32;;;2.50;;
19861;SDS011;10093;48.148;8.542;2023-09-18T02:48:29;5.00;;;2.42;;
19861;SDS011;10093;48.148;8.542;2023-09-18T02:50:54;5.60;;;2.60;;
19861;SDS011;10093;48.148;8.542;2023-09-18T02:53:21;3.17;;;2.55;;
19861;SDS011;10093;48.148;8.542;2023-09-18T02:55:48;3.55;;;2.47;;
19861;SDS011;10093;48.148;8.542;2023-09-18T02:58:15;4.53;;;2.38;;
19861;SDS011;10093;48.148;8.542;2023-09-18T03:00:46;4.80;;;2.47;;
19861;SDS011;10093;48.148;8.542;2023-09-18T03:03:13;4.07;;;2.35;;
19861;SDS011;10093;48.148;8.542;2023-09-18T03:05:39;3.03;;;2.00;;
19861;SDS011;10093;48.148;8.542;2023-09-18T03:08:06;3.75;;;2.17;;
19861;SDS011;10093;48.148;8.542;2023-09-18T03:10:36;4.03;;;2.42;;
19861;SDS011;10093;48.148;8.542;2023-09-18T03:13:06;3.95;;;2.25;;
19861;SDS011;10093;48.148;8.542;2023-09-18T03:15:33;4.45;;;2.10;;
19861;SDS011;10093;48.148;8.542;2023-09-18T03:17:59;2.67;;;1.92;;
19861;SDS011;10093;48.148;8.542;2023-09-18T03:20:26;4.38;;;2.25;;
19861;SDS011;10093;48.148;8.542;2023-09-18T03:22:54;5.28;;;2.25;;
19861;SDS011;10093;48.148;8.542;2023-09-18T03:25:21;3.58;;;2.00;;
19861;SDS011;10093;48.148;8.542;2023-09-18T03:27:48;10.20;;;2.65;;
19861;SDS011;10093;48.148;8.542;2023-09-18T03:30:15;11.80;;;3.08;;
19861;SDS011;10093;48.148;8.542;2023-09-18T03:32:41;18.23;;;3.85;;
19861;SDS011;10093;48.148;8.542;2023-09-18T03:35:07;17.08;;;3.08;;
19861;SDS011;10093;48.148;8.542;2023-09-18T03:37:40;16.13;;;3.05;;
19861;SDS011;10093;48.148;8.542;2023-09-18T03:40:06;13.88;;;2.70;;
19861;SDS011;10093;48.148;8.542;2023-09-18T03:42:33;19.05;;;2.63;;
19861;SDS011;10093;48.148;8.542;2023-09-18T03:44:59;16.02;;;2.60;;
19861;SDS011;10093;48.148;8.542;2023-09-18T03:47:25;17.30;;;2.85;;
19861;SDS011;10093;48.148;8.542;2023-09-18T03:49:50;12.07;;;2.38;;
19861;SDS011;10093;48.148;8.542;2023-09-18T03:52:16;8.25;;;2.38;;
19861;SDS011;10093;48.148;8.542;2023-09-18T03:54:42;11.02;;;2.33;;
19861;SDS011;10093;48.148;8.542;2023-09-18T03:57:07;9.50;;;2.10;;
19861;SDS011;10093;48.148;8.542;2023-09-18T03:59:33;10.32;;;2.30;;
19861;SDS011;10093;48.148;8.542;2023-09-18T04:01:58;13.38;;;2.58;;
19861;SDS011;10093;48.148;8.542;2023-09-18T04:04:24;11.57;;;2.40;;
19861;SDS011;10093;48.148;8.542;2023-09-18T04:06:49;13.80;;;1.80;;
19861;SDS011;10093;48.148;8.542;2023-09-18T04:09:15;12.20;;;1.70;;
19861;SDS011;10093;48.148;8.542;2023-09-18T04:11:41;11.25;;;1.88;;
19861;SDS011;10093;48.148;8.542;2023-09-18T04:14:06;6.13;;;1.27;;
19861;SDS011;10093;48.148;8.542;2023-09-18T04:16:32;8.45;;;1.25;;
19861;SDS011;10093;48.148;8.542;2023-09-18T04:19:02;6.63;;;0.88;;
19861;SDS011;10093;48.148;8.542;2023-09-18T04:21:28;8.50;;;1.33;;
19861;SDS011;10093;48.148;8.542;2023-09-18T04:23:54;6.75;;;1.27;;
19861;SDS011;10093;48.148;8.542;2023-09-18T04:26:25;10.07;;;1.38;;
19861;SDS011;10093;48.148;8.542;2023-09-18T04:28:59;7.68;;;1.20;;
19861;SDS011;10093;48.148;8.542;2023-09-18T04:31:25;4.78;;;1.35;;
19861;SDS011;10093;48.148;8.542;2023-09-18T04:33:52;6.63;;;1.20;;
19861;SDS011;10093;48.148;8.542;2023-09-18T04:36:18;12.38;;;1.30;;
19861;SDS011;10093;48.148;8.542;2023-09-18T04:38:44;6.60;;;1.25;;
19861;SDS011;10093;48.148;8.542;2023-09-18T04:41:09;8.15;;;1.90;;
19861;SDS011;10093;48.148;8.542;2023-09-18T04:43:39;13.00;;;2.13;;
19861;SDS011;10093;48.148;8.542;2023-09-18T04:46:05;8.23;;;1.77;;
19861;SDS011;10093;48.148;8.542;2023-09-18T04:48:31;10.77;;;2.20;;
19861;SDS011;10093;48.148;8.542;2023-09-18T04:50:57;12.57;;;1.70;;
19861;SDS011;10093;48.148;8.542;2023-09-18T04:53:24;9.13;;;1.50;;
19861;SDS011;10093;48.148;8.542;2023-09-18T04:55:50;5.22;;;1.08;;
19861;SDS011;10093;48.148;8.542;2023-09-18T04:58:21;8.73;;;1.75;;
19861;SDS011;10093;48.148;8.542;2023-09-18T05:00:54;6.25;;;1.20;;
19861;SDS011;10093;48.148;8.542;2023-09-18T05:03:28;7.18;;;1.50;;
19861;SDS011;10093;48.148;8.542;2023-09-18T05:05:54;11.70;;;1.85;;
19861;SDS011;10093;48.148;8.542;2023-09-18T05:08:20;8.30;;;1.67;;
19861;SDS011;10093;48.148;8.542;2023-09-18T05:10:45;10.05;;;1.30;;
19861;SDS011;10093;48.148;8.542;2023-09-18T05:13:12;9.07;;;1.60;;
19861;SDS011;10093;48.148;8.542;2023-09-18T05:15:38;8.20;;;1.42;;
19861;SDS011;10093;48.148;8.542;2023-09-18T05:18:04;7.38;;;1.58;;
19861;SDS011;10093;48.148;8.542;2023-09-18T05:20:29;7.78;;;1.38;;
19861;SDS011;10093;48.148;8.542;2023-09-18T05:22:56;8.57;;;1.83;;
19861;SDS011;10093;48.148;8.542;2023-09-18T05:25:22;10.40;;;1.00;;
19861;SDS011;10093;48.148;8.542;2023-09-18T05:27:54;6.10;;;1.27;;
19861;SDS011;10093;48.148;8.542;2023-09-18T05:30:24;9.00;;;1.30;;
19861;SDS011;10093;48.148;8.542;2023-09-18T05:32:57;7.55;;;1.33;;
19861;SDS011;10093;48.148;8.542;2023-09-18T05:35:29;4.32;;;1.23;;
19861;SDS011;10093;48.148;8.542;2023-09-18T05:37:55;11.82;;;1.30;;
19861;SDS011;10093;48.148;8.542;2023-09-18T05:40:23;6.25;;;1.13;;
19861;SDS011;10093;48.148;8.542;2023-09-18T05:42:53;7.15;;;1.38;;
19861;SDS011;10093;48.148;8.542;2023-09-18T05:45:20;8.88;;;1.40;;
19861;SDS011;10093;48.148;8.542;2023-09-18T05:47:46;4.55;;;1.10;;
19861;SDS011;10093;48.148;8.542;2023-09-18T05:50:12;5.65;;;1.10;;
19861;SDS011;10093;48.148;8.542;2023-09-18T05:52:42;10.60;;;2.83;;
19861;SDS011;10093;48.148;8.542;2023-09-18T05:55:08;10.05;;;1.30;;
19861;SDS011;10093;48.148;8.542;2023-09-18T05:57:35;9.90;;;2.05;;
19861;SDS011;10093;48.148;8.542;2023-09-18T06:00:00;7.60;;;1.25;;
19861;SDS011;10093;48.148;8.542;2023-09-18T06:02:26;7.07;;;1.40;;
19861;SDS011;10093;48.148;8.542;2023-09-18T06:04:58;4.95;;;1.05;;
19861;SDS011;10093;48.148;8.542;2023-09-18T06:07:28;5.10;;;1.40;;
19861;SDS011;10093;48.148;8.542;2023-09-18T06:09:54;12.50;;;1.20;;
19861;SDS011;10093;48.148;8.542;2023-09-18T06:12:21;7.75;;;1.10;;
19861;SDS011;10093;48.148;8.542;2023-09-18T06:14:47;10.85;;;1.10;;
19861;SDS011;10093;48.148;8.542;2023-09-18T06:17:13;10.77;;;1.48;;
19861;SDS011;10093;48.148;8.542;2023-09-18T06:19:39;6.30;;;1.17;;
19861;SDS011;10093;48.148;8.542;2023-09-18T06:22:08;8.15;;;0.85;;
19861;SDS011;10093;48.148;8.542;2023-09-18T06:24:34;8.10;;;1.50;;
19861;SDS011;10093;48.148;8.542;2023-09-18T06:27:00;7.30;;;1.10;;
19861;SDS011;10093;48.148;8.542;2023-09-18T06:29:26;6.28;;;1.17;;
19861;SDS011;10093;48.148;8.542;2023-09-18T06:31:51;9.00;;;1.33;;
19861;SDS011;10093;48.148;8.542;2023-09-18T06:34:17;6.57;;;1.05;;
19861;SDS011;10093;48.148;8.542;2023-09-18T06:36:43;8.73;;;1.50;;
19861;SDS011;10093;48.148;8.542;2023-09-18T06:39:08;9.43;;;1.17;;
19861;SDS011;10093;48.148;8.542;2023-09-18T06:41:34;9.20;;;1.13;;
19861;SDS011;10093;48.148;8.542;2023-09-18T06:44:00;7.88;;;1.20;;
19861;SDS011;10093;48.148;8.542;2023-09-18T06:46:29;5.35;;;0.70;;
19861;SDS011;10093;48.148;8.542;2023-09-18T06:48:55;8.18;;;3.25;;
19861;SDS011;10093;48.148;8.542;2023-09-18T06:51:21;8.60;;;3.17;;
19861;SDS011;10093;48.148;8.542;2023-09-18T06:53:48;8.15;;;1.58;;
19861;SDS011;10093;48.148;8.542;2023-09-18T06:56:13;11.98;;;1.67;;
19861;SDS011;10093;48.148;8.542;2023-09-18T06:58:39;8.70;;;1.15;;
19861;SDS011;10093;48.148;8.542;2023-09-18T07:01:04;6.35;;;1.02;;
19861;SDS011;10093;48.148;8.542;2023-09-18T07:03:34;7.13;;;0.93;;
19861;SDS011;10093;48.148;8.542;2023-09-18T07:06:01;4.65;;;0.98;;
19861;SDS011;10093;48.148;8.542;2023-09-18T07:08:27;9.88;;;1.50;;
19861;SDS011;10093;48.148;8.542;2023-09-18T07:10:53;4.78;;;1.40;;
19861;SDS011;10093;48.148;8.542;2023-09-18T07:13:18;5.63;;;1.48;;
19861;SDS011;10093;48.148;8.542;2023-09-18T07:15:44;5.50;;;1.17;;
19861;SDS011;10093;48.148;8.542;2023-09-18T07:18:10;5.90;;;1.40;;
19861;SDS011;10093;48.148;8.542;2023-09-18T07:20:39;8.15;;;1.33;;
19861;SDS011;10093;48.148;8.542;2023-09-18T07:23:14;9.93;;;1.35;;
19861;SDS011;10093;48.148;8.542;2023-09-18T07:25:39;10.18;;;1.70;;
19861;SDS011;10093;48.148;8.542;2023-09-18T07:28:08;2.20;;;0.63;;
19861;SDS011;10093;48.148;8.542;2023-09-18T07:30:34;2.90;;;0.60;;
19861;SDS011;10093;48.148;8.542;2023-09-18T07:33:02;2.97;;;0.60;;
19861;SDS011;10093;48.148;8.542;2023-09-18T07:35:28;5.15;;;1.02;;
19861;SDS011;10093;48.148;8.542;2023-09-18T07:37:54;7.95;;;1.20;;
19861;SDS011;10093;48.148;8.542;2023-09-18T07:40:19;3.20;;;0.77;;
19861;SDS011;10093;48.148;8.542;2023-09-18T07:42:46;3.20;;;0.50;;
19861;SDS011;10093;48.148;8.542;2023-09-18T07:45:12;2.28;;;0.60;;
19861;SDS011;10093;48.148;8.542;2023-09-18T07:47:38;3.03;;;0.50;;
19861;SDS011;10093;48.148;8.542;2023-09-18T07:50:04;5.10;;;0.80;;
19861;SDS011;10093;48.148;8.542;2023-09-18T07:52:30;7.88;;;0.80;;
19861;SDS011;10093;48.148;8.542;2023-09-18T07:54:56;4.13;;;0.70;;
19861;SDS011;10093;48.148;8.542;2023-09-18T07:57:23;5.60;;;0.70;;
19861;SDS011;10093;48.148;8.542;2023-09-18T07:59:49;2.45;;;0.70;;
19861;SDS011;10093;48.148;8.542;2023-09-18T08:02:15;2.42;;;0.50;;
19861;SDS011;10093;48.148;8.542;2023-09-18T08:04:42;4.57;;;0.73;;
19861;SDS011;10093;48.148;8.542;2023-09-18T08:07:08;3.83;;;0.40;;
19861;SDS011;10093;48.148;8.542;2023-09-18T08:09:33;1.42;;;0.50;;
19861;SDS011;10093;48.148;8.542;2023-09-18T08:12:05;3.60;;;0.70;;
19861;SDS011;10093;48.148;8.542;2023-09-18T08:14:31;1.88;;;0.70;;
19861;SDS011;10093;48.148;8.542;2023-09-18T08:16:57;3.53;;;0.70;;
19861;SDS011;10093;48.148;8.542;2023-09-18T08:19:24;1.98;;;0.60;;
19861;SDS011;10093;48.148;8.542;2023-09-18T08:21:54;3.03;;;0.50;;
19861;SDS011;10093;48.148;8.542;2023-09-18T08:24:24;1.17;;;0.68;;
19861;SDS011;10093;48.148;8.542;2023-09-18T08:26:50;4.85;;;0.50;;
19861;SDS011;10093;48.148;8.542;2023-09-18T08:29:16;4.15;;;0.80;;
19861;SDS011;10093;48.148;8.542;2023-09-18T08:31:42;3.67;;;0.73;;
19861;SDS011;10093;48.148;8.542;2023-09-18T08:34:08;2.40;;;0.68;;
19861;SDS011;10093;48.148;8.542;2023-09-18T08:36:33;9.38;;;1.00;;
19861;SDS011;10093;48.148;8.542;2023-09-18T08:38:59;4.50;;;0.98;;
19861;SDS011;10093;48.148;8.542;2023-09-18T08:41:25;4.75;;;0.75;;
19861;SDS011;10093;48.148;8.542;2023-09-18T08:43:56;7.82;;;1.30;;
19861;SDS011;10093;48.148;8.542;2023-09-18T08:46:28;4.65;;;1.05;;
19861;SDS011;10093;48.148;8.542;2023-09-18T08:48:54;3.88;;;1.00;;
19861;SDS011;10093;48.148;8.542;2023-09-18T08:51:22;4.15;;;0.80;;
19861;SDS011;10093;48.148;8.542;2023-09-18T08:53:48;5.00;;;0.65;;
19861;SDS011;10093;48.148;8.542;2023-09-18T08:56:14;4.75;;;0.73;;
19861;SDS011;10093;48.148;8.542;2023-09-18T08:58:42;9.02;;;0.80;;
19861;SDS011;10093;48.148;8.542;2023-09-18T09:01:09;4.15;;;0.60;;
19861;SDS011;10093;48.148;8.542;2023-09-18T09:03:40;2.65;;;0.55;;
19861;SDS011;10093;48.148;8.542;2023-09-18T09:06:07;4.43;;;0.63;;
19861;SDS011;10093;48.148;8.542;2023-09-18T09:08:33;3.00;;;0.80;;
19861;SDS011;10093;48.148;8.542;2023-09-18T09:10:59;1.75;;;0.70;;
19861;SDS011;10093;48.148;8.542;2023-09-18T09:13:25;3.08;;;0.40;;
19861;SDS011;10093;48.148;8.542;2023-09-18T09:15:56;4.43;;;0.68;;
19861;SDS011;10093;48.148;8.542;2023-09-18T09:18:23;1.63;;;0.63;;
19861;SDS011;10093;48.148;8.542;2023-09-18T09:20:56;1.90;;;0.57;;
19861;SDS011;10093;48.148;8.542;2023-09-18T09:23:24;4.97;;;0.88;;
19861;SDS011;10093;48.148;8.542;2023-09-18T09:25:54;2.63;;;0.90;;
19861;SDS011;10093;48.148;8.542;2023-09-18T09:28:36;4.43;;;0.65;;
19861;SDS011;10093;48.148;8.542;2023-09-18T09:31:02;2.92;;;0.60;;
19861;SDS011;10093;48.148;8.542;2023-09-18T09:33:29;3.97;;;0.43;;
19861;SDS011;10093;48.148;8.542;2023-09-18T09:35:55;1.05;;;0.40;;
19861;SDS011;10093;48.148;8.542;2023-09-18T09:38:27;2.35;;;0.40;;
19861;SDS011;10093;48.148;8.542;2023-09-18T09:40:56;3.85;;;0.52;;
19861;SDS011;10093;48.148;8.542;2023-09-18T09:43:24;4.18;;;0.50;;
19861;SDS011;10093;48.148;8.542;2023-09-18T09:45:56;9.15;;;0.63;;
19861;SDS011;10093;48.148;8.542;2023-09-18T09:48:25;5.88;;;0.73;;
19861;SDS011;10093;48.148;8.542;2023-09-18T09:50:51;1.73;;;0.50;;
19861;SDS011;10093;48.148;8.542;2023-09-18T09:53:20;2.88;;;0.82;;
19861;SDS011;10093;48.148;8.542;2023-09-18T09:56:09;2.83;;;0.60;;
19861;SDS011;10093;48.148;8.542;2023-09-18T09:58:35;3.05;;;0.80;;
19861;SDS011;10093;48.148;8.542;2023-09-18T10:01:03;3.17;;;0.75;;
19861;SDS011;10093;48.148;8.542;2023-09-18T10:03:34;2.83;;;0.57;;
19861;SDS011;10093;48.148;8.542;2023-09-18T10:06:01;4.32;;;0.60;;
19861;SDS011;10093;48.148;8.542;2023-09-18T10:08:29;2.42;;;0.70;;
19861;SDS011;10093;48.148;8.542;2023-09-18T10:11:06;3.20;;;0.95;;
19861;SDS011;10093;48.148;8.542;2023-09-18T10:13:42;2.85;;;0.70;;
19861;SDS011;10093;48.148;8.542;2023-09-18T10:16:20;4.80;;;0.90;;
19861;SDS011;10093;48.148;8.542;2023-09-18T10:19:13;1.88;;;0.70;;
19861;SDS011;10093;48.148;8.542;2023-09-18T10:24:19;2.97;;;0.50;;
19861;SDS011;10093;48.148;8.542;2023-09-18T10:26:58;0.70;;;0.50;;
19861;SDS011;10093;48.148;8.542;2023-09-18T10:29:30;2.88;;;0.60;;
19861;SDS011;10093;48.148;8.542;2023-09-18T10:31:57;5.68;;;0.60;;
19861;SDS011;10093;48.148;8.542;2023-09-18T10:34:24;2.85;;;0.55;;
19861;SDS011;10093;48.148;8.542;2023-09-18T10:36:50;1.25;;;0.50;;
19861;SDS011;10093;48.148;8.542;2023-09-18T10:39:17;2.58;;;0.60;;
19861;SDS011;10093;48.148;8.542;2023-09-18T10:41:51;5.68;;;0.68;;
19861;SDS011;10093;48.148;8.542;2023-09-18T10:44:18;2.33;;;0.43;;
19861;SDS011;10093;48.148;8.542;2023-09-18T10:46:47;2.10;;;0.70;;
19861;SDS011;10093;48.148;8.542;2023-09-18T10:49:15;4.05;;;0.85;;
19861;SDS011;10093;48.148;8.542;2023-09-18T10:51:41;2.80;;;0.80;;
19861;SDS011;10093;48.148;8.542;2023-09-18T10:54:09;2.08;;;0.77;;
19861;SDS011;10093;48.148;8.542;2023-09-18T10:56:35;3.42;;;0.70;;
19861;SDS011;10093;48.148;8.542;2023-09-18T10:59:01;3.58;;;0.70;;
19861;SDS011;10093;48.148;8.542;2023-09-18T11:01:30;0.85;;;0.50;;
19861;SDS011;10093;48.148;8.542;2023-09-18T11:04:06;2.08;;;0.80;;
19861;SDS011;10093;48.148;8.542;2023-09-18T11:09:22;3.92;;;1.05;;
19861;SDS011;10093;48.148;8.542;2023-09-18T11:11:52;2.15;;;0.55;;
19861;SDS011;10093;48.148;8.542;2023-09-18T11:14:22;5.60;;;0.93;;
19861;SDS011;10093;48.148;8.542;2023-09-18T11:16:49;3.17;;;0.60;;
19861;SDS011;10093;48.148;8.542;2023-09-18T11:19:18;3.80;;;0.85;;
19861;SDS011;10093;48.148;8.542;2023-09-18T11:21:44;3.28;;;0.70;;
19861;SDS011;10093;48.148;8.542;2023-09-18T11:24:20;1.90;;;0.60;;
19861;SDS011;10093;48.148;8.542;2023-09-18T11:26:48;2.45;;;0.77;;
19861;SDS011;10093;48.148;8.542;2023-09-18T11:29:17;2.28;;;0.65;;
19861;SDS011;10093;48.148;8.542;2023-09-18T11:31:54;3.70;;;1.00;;
19861;SDS011;10093;48.148;8.542;2023-09-18T11:36:56;4.03;;;0.70;;
19861;SDS011;10093;48.148;8.542;2023-09-18T11:39:41;2.15;;;0.80;;
19861;SDS011;10093;48.148;8.542;2023-09-18T11:42:13;3.83;;;0.65;;
19861;SDS011;10093;48.148;8.542;2023-09-18T11:44:43;4.85;;;0.95;;
19861;SDS011;10093;48.148;8.542;2023-09-18T11:47:11;5.80;;;0.80;;
19861;SDS011;10093;48.148;8.542;2023-09-18T11:49:45;4.10;;;0.75;;
19861;SDS011;10093;48.148;8.542;2023-09-18T11:52:20;2.95;;;0.57;;
19861;SDS011;10093;48.148;8.542;2023-09-18T11:54:46;2.33;;;0.55;;
19861;SDS011;10093;48.148;8.542;2023-09-18T11:57:13;2.08;;;0.80;;
19861;SDS011;10093;48.148;8.542;2023-09-18T11:59:39;1.88;;;0.60;;
19861;SDS011;10093;48.148;8.542;2023-09-18T12:02:07;3.72;;;1.10;;
19861;SDS011;10093;48.148;8.542;2023-09-18T12:04:35;4.88;;;0.60;;
19861;SDS011;10093;48.148;8.542;2023-09-18T12:07:01;2.63;;;0.75;;
19861;SDS011;10093;48.148;8.542;2023-09-18T12:09:30;3.33;;;0.75;;
19861;SDS011;10093;48.148;8.542;2023-09-18T12:11:58;2.00;;;0.65;;
19861;SDS011;10093;48.148;8.542;2023-09-18T12:14:32;2.20;;;0.60;;
19861;SDS011;10093;48.148;8.542;2023-09-18T12:16:59;2.35;;;0.50;;
19861;SDS011;10093;48.148;8.542;2023-09-18T12:19:26;2.70;;;0.60;;
19861;SDS011;10093;48.148;8.542;2023-09-18T12:21:52;2.20;;;0.60;;
19861;SDS011;10093;48.148;8.542;2023-09-18T12:24:21;3.20;;;0.65;;
19861;SDS011;10093;48.148;8.542;2023-09-18T12:26:48;2.35;;;0.60;;
19861;SDS011;10093;48.148;8.542;2023-09-18T12:29:14;0.40;;;0.40;;
19861;SDS011;10093;48.148;8.542;2023-09-18T12:31:40;0.90;;;0.40;;
19861;SDS011;10093;48.148;8.542;2023-09-18T12:34:40;1.88;;;0.50;;
19861;SDS011;10093;48.148;8.542;2023-09-18T12:36:59;1.40;;;0.40;;
19861;SDS011;10093;48.148;8.542;2023-09-18T12:39:31;1.83;;;0.40;;
19861;SDS011;10093;48.148;8.542;2023-09-18T12:41:57;2.40;;;0.32;;
19861;SDS011;10093;48.148;8.542;2023-09-18T12:44:23;2.00;;;0.60;;
19861;SDS011;10093;48.148;8.542;2023-09-18T12:46:48;2.35;;;0.30;;
19861;SDS011;10093;48.148;8.542;2023-09-18T12:49:20;2.38;;;0.40;;
19861;SDS011;10093;48.148;8.542;2023-09-18T12:51:54;2.05;;;0.38;;
19861;SDS011;10093;48.148;8.542;2023-09-18T12:54:36;2.05;;;0.30;;
19861;SDS011;10093;48.148;8.542;2023-09-18T12:57:02;2.47;;;0.50;;
19861;SDS011;10093;48.148;8.542;2023-09-18T12:59:32;1.00;;;0.43;;
19861;SDS011;10093;48.148;8.542;2023-09-18T13:02:00;2.97;;;0.32;;
19861;SDS011;10093;48.148;8.542;2023-09-18T13:04:29;1.95;;;0.40;;
19861;SDS011;10093;48.148;8.542;2023-09-18T13:07:14;2.22;;;0.52;;
19861;SDS011;10093;48.148;8.542;2023-09-18T13:09:40;1.35;;;0.38;;
19861;SDS011;10093;48.148;8.542;2023-09-18T13:12:07;1.13;;;0.30;;
19861;SDS011;10093;48.148;8.542;2023-09-18T13:17:52;3.05;;;0.50;;
19861;SDS011;10093;48.148;8.542;2023-09-18T13:20:20;2.58;;;0.40;;
19861;SDS011;10093;48.148;8.542;2023-09-18T13:22:49;3.58;;;0.50;;
19861;SDS011;10093;48.148;8.542;2023-09-18T13:25:20;1.30;;;0.32;;
19861;SDS011;10093;48.148;8.542;2023-09-18T13:27:47;1.40;;;0.40;;
19861;SDS011;10093;48.148;8.542;2023-09-18T13:30:14;5.35;;;0.40;;
19861;SDS011;10093;48.148;8.542;2023-09-18T13:32:42;0.80;;;0.30;;
19861;SDS011;10093;48.148;8.542;2023-09-18T13:35:09;1.65;;;0.50;;
19861;SDS011;10093;48.148;8.542;2023-09-18T13:37:36;1.20;;;0.30;;
19861;SDS011;10093;48.148;8.542;2023-09-18T13:40:03;1.65;;;0.45;;
19861;SDS011;10093;48.148;8.542;2023-09-18T13:42:32;4.70;;;0.40;;
19861;SDS011;10093;48.148;8.542;2023-09-18T13:44:58;1.77;;;0.40;;
19861;SDS011;10093;48.148;8.542;2023-09-18T13:47:29;2.00;;;0.40;;
19861;SDS011;10093;48.148;8.542;2023-09-18T13:49:55;1.15;;;0.30;;
19861;SDS011;10093;48.148;8.542;2023-09-18T13:52:28;0.75;;;0.40;;
19861;SDS011;10093;48.148;8.542;2023-09-18T13:54:54;1.65;;;0.40;;
19861;SDS011;10093;48.148;8.542;2023-09-18T13:57:21;0.68;;;0.30;;
19861;SDS011;10093;48.148;8.542;2023-09-18T13:59:47;0.68;;;0.35;;
19861;SDS011;10093;48.148;8.542;2023-09-18T14:02:15;1.70;;;0.30;;
19861;SDS011;10093;48.148;8.542;2023-09-18T14:04:41;1.17;;;0.40;;
19861;SDS011;10093;48.148;8.542;2023-09-18T14:07:07;2.22;;;0.40;;
19861;SDS011;10093;48.148;8.542;2023-09-18T14:09:34;1.27;;;0.40;;
19861;SDS011;10093;48.148;8.542;2023-09-18T14:12:00;3.60;;;0.40;;
19861;SDS011;10093;48.148;8.542;2023-09-18T14:14:26;1.88;;;0.35;;
19861;SDS011;10093;48.148;8.542;2023-09-18T14:16:52;2.25;;;0.40;;
19861;SDS011;10093;48.148;8.542;2023-09-18T14:19:18;1.27;;;0.35;;
19861;SDS011;10093;48.148;8.542;2023-09-18T14:21:44;1.35;;;0.40;;
19861;SDS011;10093;48.148;8.542;2023-09-18T14:24:10;2.20;;;0.45;;
19861;SDS011;10093;48.148;8.542;2023-09-18T14:26:36;2.15;;;0.40;;
19861;SDS011;10093;48.148;8.542;2023-09-18T14:29:11;2.38;;;0.40;;
19861;SDS011;10093;48.148;8.542;2023-09-18T14:31:37;1.95;;;0.40;;
19861;SDS011;10093;48.148;8.542;2023-09-18T14:34:03;2.95;;;0.43;;
19861;SDS011;10093;48.148;8.542;2023-09-18T14:36:30;4.43;;;0.50;;
19861;SDS011;10093;48.148;8.542;2023-09-18T14:39:00;1.48;;;0.30;;
19861;SDS011;10093;48.148;8.542;2023-09-18T14:41:26;2.67;;;0.40;;
19861;SDS011;10093;48.148;8.542;2023-09-18T14:43:52;1.15;;;0.50;;
19861;SDS011;10093;48.148;8.542;2023-09-18T14:46:18;4.97;;;0.50;;
19861;SDS011;10093;48.148;8.542;2023-09-18T14:48:44;0.88;;;0.40;;
19861;SDS011;10093;48.148;8.542;2023-09-18T14:51:10;1.30;;;0.50;;
19861;SDS011;10093;48.148;8.542;2023-09-18T14:53:36;1.23;;;0.40;;
19861;SDS011;10093;48.148;8.542;2023-09-18T14:56:02;0.75;;;0.40;;
19861;SDS011;10093;48.148;8.542;2023-09-18T14:58:29;2.65;;;0.65;;
19861;SDS011;10093;48.148;8.542;2023-09-18T15:00:55;0.90;;;0.40;;